sensor_id;sensor_type;location;lat;lon;timestamp;pressure;altitude;pressure_sealevel;temperature;humidity
72061;BME280;59925;52.136;5.420;2022-12-10T00:01:29;101062.00;;;-1.90;95.00
72061;BME280;59925;52.136;5.420;2022-12-10T00:03:56;101065.63;;;-1.91;95.54
72061;BME280;59925;52.136;5.420;2022-12-10T00:06:26;101069.88;;;-1.90;95.56
72061;BME280;59925;52.136;5.420;2022-12-10T00:08:53;101060.00;;;-1.88;95.82
72061;BME280;59925;52.136;5.420;2022-12-10T00:11:22;101058.38;;;-1.89;94.92
72061;BME280;59925;52.136;5.420;2022-12-10T00:13:49;101053.75;;;-1.87;95.14
72061;BME280;59925;52.136;5.420;2022-12-10T00:16:19;101056.19;;;-1.86;95.05
72061;BME280;59925;52.136;5.420;2022-12-10T00:18:46;101051.75;;;-1.85;95.49
72061;BME280;59925;52.136;5.420;2022-12-10T00:21:17;101061.66;;;-1.87;95.73
72061;BME280;59925;52.136;5.420;2022-12-10T00:23:44;101060.00;;;-1.88;95.65
72061;BME280;59925;52.136;5.420;2022-12-10T00:26:23;101055.56;;;-1.88;95.59
72061;BME280;59925;52.136;5.420;2022-12-10T00:28:50;101061.81;;;-1.89;95.43
72061;BME280;59925;52.136;5.420;2022-12-10T00:31:25;101060.00;;;-1.88;95.33
72061;BME280;59925;52.136;5.420;2022-12-10T00:33:54;101053.91;;;-1.89;95.82
72061;BME280;59925;52.136;5.420;2022-12-10T00:36:24;101053.47;;;-1.92;95.08
72061;BME280;59925;52.136;5.420;2022-12-10T00:38:51;101057.09;;;-1.93;95.42
72061;BME280;59925;52.136;5.420;2022-12-10T00:41:17;101057.09;;;-1.93;95.22
72061;BME280;59925;52.136;5.420;2022-12-10T00:43:44;101064.19;;;-1.94;95.37
72061;BME280;59925;52.136;5.420;2022-12-10T00:46:12;101053.66;;;-1.94;95.03
72061;BME280;59925;52.136;5.420;2022-12-10T00:48:39;101059.72;;;-1.93;95.51
72061;BME280;59925;52.136;5.420;2022-12-10T00:51:07;101055.13;;;-1.91;95.35
72061;BME280;59925;52.136;5.420;2022-12-10T00:53:35;101064.44;;;-1.89;95.46
72061;BME280;59925;52.136;5.420;2022-12-10T00:56:02;101057.38;;;-1.88;95.45
72061;BME280;59925;52.136;5.420;2022-12-10T00:58:31;101057.53;;;-1.90;95.82
72061;BME280;59925;52.136;5.420;2022-12-10T01:01:21;101056.75;;;-1.90;95.89
72061;BME280;59925;52.136;5.420;2022-12-10T01:03:50;101063.00;;;-1.91;95.64
72061;BME280;59925;52.136;5.420;2022-12-10T01:06:23;101062.16;;;-1.92;95.75
72061;BME280;59925;52.136;5.420;2022-12-10T01:08:51;101064.63;;;-1.90;95.72
72061;BME280;59925;52.136;5.420;2022-12-10T01:11:19;101075.59;;;-1.87;95.70
72061;BME280;59925;52.136;5.420;2022-12-10T01:13:47;101067.91;;;-1.88;95.68
72061;BME280;59925;52.136;5.420;2022-12-10T01:16:17;101068.69;;;-1.88;95.72
72061;BME280;59925;52.136;5.420;2022-12-10T01:18:44;101071.31;;;-1.88;95.44
72061;BME280;59925;52.136;5.420;2022-12-10T01:21:12;101075.78;;;-1.88;95.61
72061;BME280;59925;52.136;5.420;2022-12-10T01:23:41;101083.28;;;-1.85;95.71
72061;BME280;59925;52.136;5.420;2022-12-10T01:26:11;101082.66;;;-1.87;95.92
72061;BME280;59925;52.136;5.420;2022-12-10T01:28:39;101091.34;;;-1.87;95.63
72061;BME280;59925;52.136;5.420;2022-12-10T01:31:12;101092.81;;;-1.84;95.76
72061;BME280;59925;52.136;5.420;2022-12-10T01:33:39;101090.00;;;-1.82;95.96
72061;BME280;59925;52.136;5.420;2022-12-10T01:36:09;101089.03;;;-1.81;96.54
72061;BME280;59925;52.136;5.420;2022-12-10T01:38:37;101092.09;;;-1.78;96.44
72061;BME280;59925;52.136;5.420;2022-12-10T01:41:05;101094.72;;;-1.78;96.11
72061;BME280;59925;52.136;5.420;2022-12-10T01:46:26;101096.16;;;-1.75;95.80
72061;BME280;59925;52.136;5.420;2022-12-10T01:48:53;101091.91;;;-1.76;95.86
72061;BME280;59925;52.136;5.420;2022-12-10T01:51:20;101101.88;;;-1.72;95.97
72061;BME280;59925;52.136;5.420;2022-12-10T01:53:47;101096.59;;;-1.72;96.30
72061;BME280;59925;52.136;5.420;2022-12-10T01:56:16;101098.78;;;-1.75;96.11
72061;BME280;59925;52.136;5.420;2022-12-10T01:58:44;101099.44;;;-1.73;96.68
72061;BME280;59925;52.136;5.420;2022-12-10T02:06:45;101110.41;;;-1.70;95.97
72061;BME280;59925;52.136;5.420;2022-12-10T02:09:23;101103.34;;;-1.69;96.31
72061;BME280;59925;52.136;5.420;2022-12-10T02:14:53;101106.59;;;-1.67;96.80
72061;BME280;59925;52.136;5.420;2022-12-10T02:17:27;101102.16;;;-1.66;96.35
72061;BME280;59925;52.136;5.420;2022-12-10T02:22:45;101094.06;;;-1.65;96.26
72061;BME280;59925;52.136;5.420;2022-12-10T02:25:13;101095.25;;;-1.67;96.73
72061;BME280;59925;52.136;5.420;2022-12-10T02:28:05;101098.25;;;-1.71;95.98
72061;BME280;59925;52.136;5.420;2022-12-10T02:30:36;101112.84;;;-1.68;96.61
72061;BME280;59925;52.136;5.420;2022-12-10T02:33:05;101110.22;;;-1.68;96.50
72061;BME280;59925;52.136;5.420;2022-12-10T02:35:35;101112.56;;;-1.73;96.42
72061;BME280;59925;52.136;5.420;2022-12-10T02:38:09;101112.94;;;-1.76;95.93
72061;BME280;59925;52.136;5.420;2022-12-10T02:40:38;101109.94;;;-1.73;96.52
72061;BME280;59925;52.136;5.420;2022-12-10T02:43:08;101115.66;;;-1.70;96.74
72061;BME280;59925;52.136;5.420;2022-12-10T02:45:36;101123.53;;;-1.70;96.69
72061;BME280;59925;52.136;5.420;2022-12-10T02:48:04;101117.38;;;-1.77;96.33
72061;BME280;59925;52.136;5.420;2022-12-10T02:50:31;101120.38;;;-1.80;96.46
72061;BME280;59925;52.136;5.420;2022-12-10T02:52:57;101117.75;;;-1.80;96.25
72061;BME280;59925;52.136;5.420;2022-12-10T02:55:24;101117.75;;;-1.80;96.71
72061;BME280;59925;52.136;5.420;2022-12-10T02:58:35;101106.22;;;-1.79;96.39
72061;BME280;59925;52.136;5.420;2022-12-10T03:01:14;101104.41;;;-1.78;96.53
72061;BME280;59925;52.136;5.420;2022-12-10T03:03:50;101105.78;;;-1.82;96.33
72061;BME280;59925;52.136;5.420;2022-12-10T03:06:30;101115.47;;;-1.83;96.82
72061;BME280;59925;52.136;5.420;2022-12-10T03:09:03;101108.22;;;-1.81;96.29
72061;BME280;59925;52.136;5.420;2022-12-10T03:11:31;101111.38;;;-1.86;96.81
72061;BME280;59925;52.136;5.420;2022-12-10T03:16:41;101109.41;;;-1.83;97.04
72061;BME280;59925;52.136;5.420;2022-12-10T03:19:13;101108.22;;;-1.81;97.09
72061;BME280;59925;52.136;5.420;2022-12-10T03:21:43;101106.50;;;-1.74;97.05
72061;BME280;59925;52.136;5.420;2022-12-10T03:24:11;101099.63;;;-1.75;96.83
72061;BME280;59925;52.136;5.420;2022-12-10T03:26:39;101097.34;;;-1.78;97.03
72061;BME280;59925;52.136;5.420;2022-12-10T03:29:08;101107.78;;;-1.85;96.57
72061;BME280;59925;52.136;5.420;2022-12-10T03:31:37;101098.69;;;-1.82;96.99
72061;BME280;59925;52.136;5.420;2022-12-10T03:34:05;101096.34;;;-1.77;96.94
72061;BME280;59925;52.136;5.420;2022-12-10T03:36:32;101108.16;;;-1.73;96.90
72061;BME280;59925;52.136;5.420;2022-12-10T03:39:00;101114.31;;;-1.65;96.91
72061;BME280;59925;52.136;5.420;2022-12-10T03:41:27;101108.03;;;-1.64;96.72
72061;BME280;59925;52.136;5.420;2022-12-10T03:43:55;101106.22;;;-1.64;96.49
72061;BME280;59925;52.136;5.420;2022-12-10T03:46:23;101106.97;;;-1.70;96.97
72061;BME280;59925;52.136;5.420;2022-12-10T03:48:51;101097.88;;;-1.67;96.72
72061;BME280;59925;52.136;5.420;2022-12-10T03:51:18;101099.81;;;-1.61;96.55
72061;BME280;59925;52.136;5.420;2022-12-10T03:53:45;101106.06;;;-1.62;96.71
72061;BME280;59925;52.136;5.420;2022-12-10T03:56:11;101097.09;;;-1.68;96.70
72061;BME280;59925;52.136;5.420;2022-12-10T03:58:38;101101.06;;;-1.72;96.69
72061;BME280;59925;52.136;5.420;2022-12-10T04:01:04;101101.63;;;-1.77;96.89
72061;BME280;59925;52.136;5.420;2022-12-10T04:03:35;101101.97;;;-1.80;96.19
72061;BME280;59925;52.136;5.420;2022-12-10T04:06:07;101098.97;;;-1.77;96.31
72061;BME280;59925;52.136;5.420;2022-12-10T04:08:34;101100.25;;;-1.73;96.92
72061;BME280;59925;52.136;5.420;2022-12-10T04:11:05;101100.78;;;-1.77;96.71
72061;BME280;59925;52.136;5.420;2022-12-10T04:13:33;101098.16;;;-1.77;96.75
72061;BME280;59925;52.136;5.420;2022-12-10T04:16:18;101102.78;;;-1.79;96.88
72061;BME280;59925;52.136;5.420;2022-12-10T04:21:28;101106.78;;;-1.83;97.04
72061;BME280;59925;52.136;5.420;2022-12-10T04:24:14;101113.13;;;-1.78;96.94
72061;BME280;59925;52.136;5.420;2022-12-10T04:27:04;101104.59;;;-1.80;96.66
72061;BME280;59925;52.136;5.420;2022-12-10T04:29:31;101113.91;;;-1.77;97.01
72061;BME280;59925;52.136;5.420;2022-12-10T04:31:58;101110.13;;;-1.75;96.42
72061;BME280;59925;52.136;5.420;2022-12-10T04:34:24;101118.03;;;-1.75;96.92
72061;BME280;59925;52.136;5.420;2022-12-10T04:36:51;101110.84;;;-1.81;96.69
72061;BME280;59925;52.136;5.420;2022-12-10T04:39:18;101108.13;;;-1.88;96.75
72061;BME280;59925;52.136;5.420;2022-12-10T04:41:47;101101.69;;;-1.85;96.95
72061;BME280;59925;52.136;5.420;2022-12-10T04:44:13;101099.69;;;-1.83;96.78
72061;BME280;59925;52.136;5.420;2022-12-10T04:46:40;101095.63;;;-1.86;96.78
72061;BME280;59925;52.136;5.420;2022-12-10T04:49:07;101097.78;;;-1.89;96.52
72061;BME280;59925;52.136;5.420;2022-12-10T04:51:34;101096.16;;;-1.90;96.57
72061;BME280;59925;52.136;5.420;2022-12-10T04:54:01;101107.75;;;-1.99;96.91
72061;BME280;59925;52.136;5.420;2022-12-10T04:56:28;101108.56;;;-1.99;96.59
72061;BME280;59925;52.136;5.420;2022-12-10T04:58:57;101107.47;;;-2.05;96.49
72061;BME280;59925;52.136;5.420;2022-12-10T05:01:24;101117.97;;;-2.05;96.88
72061;BME280;59925;52.136;5.420;2022-12-10T05:03:51;101117.97;;;-2.05;96.79
72061;BME280;59925;52.136;5.420;2022-12-10T05:06:19;101109.47;;;-2.07;97.27
72061;BME280;59925;52.136;5.420;2022-12-10T05:08:46;101115.16;;;-2.03;97.11
72061;BME280;59925;52.136;5.420;2022-12-10T05:11:16;101110.84;;;-1.96;97.21
72061;BME280;59925;52.136;5.420;2022-12-10T05:13:43;101127.41;;;-1.95;96.79
72061;BME280;59925;52.136;5.420;2022-12-10T05:16:11;101117.28;;;-1.98;96.74
72061;BME280;59925;52.136;5.420;2022-12-10T05:18:38;101117.44;;;-2.00;96.77
72061;BME280;59925;52.136;5.420;2022-12-10T05:21:07;101128.41;;;-1.96;96.67
72061;BME280;59925;52.136;5.420;2022-12-10T05:23:39;101111.66;;;-1.95;97.23
72061;BME280;59925;52.136;5.420;2022-12-10T05:26:18;101111.66;;;-1.95;96.91
72061;BME280;59925;52.136;5.420;2022-12-10T05:28:54;101112.72;;;-1.90;97.29
72061;BME280;59925;52.136;5.420;2022-12-10T05:31:26;101116.56;;;-1.92;97.18
72061;BME280;59925;52.136;5.420;2022-12-10T05:33:53;101119.38;;;-1.94;97.25
72061;BME280;59925;52.136;5.420;2022-12-10T05:36:23;101120.34;;;-1.95;97.23
72061;BME280;59925;52.136;5.420;2022-12-10T05:38:50;101125.44;;;-1.93;97.58
72061;BME280;59925;52.136;5.420;2022-12-10T05:41:22;101118.19;;;-1.91;97.26
72061;BME280;59925;52.136;5.420;2022-12-10T05:43:50;101124.78;;;-1.95;97.08
72061;BME280;59925;52.136;5.420;2022-12-10T05:46:22;101127.78;;;-1.98;97.23
72061;BME280;59925;52.136;5.420;2022-12-10T05:48:50;101128.88;;;-1.93;97.34
72061;BME280;59925;52.136;5.420;2022-12-10T05:51:20;101133.31;;;-1.93;97.33
72061;BME280;59925;52.136;5.420;2022-12-10T05:53:46;101129.50;;;-1.91;97.06
72061;BME280;59925;52.136;5.420;2022-12-10T05:56:15;101123.34;;;-1.83;97.31
72061;BME280;59925;52.136;5.420;2022-12-10T05:58:46;101123.34;;;-1.83;97.60
72061;BME280;59925;52.136;5.420;2022-12-10T06:01:15;101125.53;;;-1.87;97.02
72061;BME280;59925;52.136;5.420;2022-12-10T06:03:42;101132.41;;;-1.86;96.97
72061;BME280;59925;52.136;5.420;2022-12-10T06:06:09;101128.34;;;-1.88;97.26
72061;BME280;59925;52.136;5.420;2022-12-10T06:08:36;101129.78;;;-1.86;97.49
72061;BME280;59925;52.136;5.420;2022-12-10T06:11:08;101130.44;;;-1.83;96.94
72061;BME280;59925;52.136;5.420;2022-12-10T06:13:36;101123.72;;;-1.86;97.63
72061;BME280;59925;52.136;5.420;2022-12-10T06:16:08;101121.25;;;-1.88;97.30
72061;BME280;59925;52.136;5.420;2022-12-10T06:18:35;101127.34;;;-1.87;97.26
72061;BME280;59925;52.136;5.420;2022-12-10T06:21:06;101138.84;;;-1.88;97.57
72061;BME280;59925;52.136;5.420;2022-12-10T06:23:37;101137.22;;;-1.89;97.25
72061;BME280;59925;52.136;5.420;2022-12-10T06:26:13;101139.41;;;-1.93;97.57
72061;BME280;59925;52.136;5.420;2022-12-10T06:28:40;101131.41;;;-1.99;97.26
72061;BME280;59925;52.136;5.420;2022-12-10T06:31:06;101136.81;;;-2.01;97.86
72061;BME280;59925;52.136;5.420;2022-12-10T06:33:33;101145.69;;;-2.02;97.27
72061;BME280;59925;52.136;5.420;2022-12-10T06:36:06;101144.53;;;-1.99;97.64
72061;BME280;59925;52.136;5.420;2022-12-10T06:38:33;101144.00;;;-1.95;97.22
72061;BME280;59925;52.136;5.420;2022-12-10T06:41:00;101149.63;;;-1.98;97.98
72061;BME280;59925;52.136;5.420;2022-12-10T06:43:29;101149.50;;;-2.05;97.36
72061;BME280;59925;52.136;5.420;2022-12-10T06:45:56;101157.03;;;-2.02;97.53
72061;BME280;59925;52.136;5.420;2022-12-10T06:48:23;101155.66;;;-1.97;97.83
72061;BME280;59925;52.136;5.420;2022-12-10T06:50:49;101157.03;;;-2.02;97.80
72061;BME280;59925;52.136;5.420;2022-12-10T06:53:15;101160.56;;;-1.94;97.66
72061;BME280;59925;52.136;5.420;2022-12-10T06:55:42;101161.56;;;-1.95;97.91
72061;BME280;59925;52.136;5.420;2022-12-10T06:58:08;101163.28;;;-2.03;97.80
72061;BME280;59925;52.136;5.420;2022-12-10T07:00:35;101163.41;;;-1.96;97.77
72061;BME280;59925;52.136;5.420;2022-12-10T07:03:01;101162.03;;;-1.92;97.31
72061;BME280;59925;52.136;5.420;2022-12-10T07:05:27;101167.91;;;-1.90;97.37
72061;BME280;59925;52.136;5.420;2022-12-10T07:07:54;101166.28;;;-1.91;97.54
72061;BME280;59925;52.136;5.420;2022-12-10T07:10:20;101175.53;;;-1.95;97.99
72061;BME280;59925;52.136;5.420;2022-12-10T07:12:47;101173.25;;;-1.98;98.13
72061;BME280;59925;52.136;5.420;2022-12-10T07:15:13;101175.69;;;-1.96;97.93
72061;BME280;59925;52.136;5.420;2022-12-10T07:17:40;101175.44;;;-2.02;97.55
72061;BME280;59925;52.136;5.420;2022-12-10T07:20:06;101183.84;;;-2.06;98.10
72061;BME280;59925;52.136;5.420;2022-12-10T07:22:33;101185.66;;;-2.07;97.57
72061;BME280;59925;52.136;5.420;2022-12-10T07:25:00;101193.81;;;-2.02;97.97
72061;BME280;59925;52.136;5.420;2022-12-10T07:27:27;101194.63;;;-2.01;97.76
72061;BME280;59925;52.136;5.420;2022-12-10T07:29:54;101189.22;;;-1.99;97.75
72061;BME280;59925;52.136;5.420;2022-12-10T07:32:21;101191.84;;;-1.99;97.29
72061;BME280;59925;52.136;5.420;2022-12-10T07:34:47;101192.34;;;-2.04;97.38
72061;BME280;59925;52.136;5.420;2022-12-10T07:37:13;101195.16;;;-2.06;97.78
72061;BME280;59925;52.136;5.420;2022-12-10T07:39:40;101195.16;;;-2.06;97.32
72061;BME280;59925;52.136;5.420;2022-12-10T07:42:09;101187.22;;;-1.97;97.49
72061;BME280;59925;52.136;5.420;2022-12-10T07:44:35;101189.31;;;-1.93;97.61
72061;BME280;59925;52.136;5.420;2022-12-10T07:47:01;101193.41;;;-1.90;97.43
72061;BME280;59925;52.136;5.420;2022-12-10T07:49:29;101195.69;;;-1.87;97.61
72061;BME280;59925;52.136;5.420;2022-12-10T07:51:56;101194.84;;;-1.88;97.64
72061;BME280;59925;52.136;5.420;2022-12-10T07:54:22;101201.81;;;-1.95;97.41
72061;BME280;59925;52.136;5.420;2022-12-10T07:56:49;101196.91;;;-1.98;97.55
72061;BME280;59925;52.136;5.420;2022-12-10T07:59:15;101193.63;;;-2.00;97.59
72061;BME280;59925;52.136;5.420;2022-12-10T08:01:41;101201.97;;;-1.96;97.61
72061;BME280;59925;52.136;5.420;2022-12-10T08:04:08;101203.16;;;-1.99;97.49
72061;BME280;59925;52.136;5.420;2022-12-10T08:06:34;101212.38;;;-2.03;97.46
72061;BME280;59925;52.136;5.420;2022-12-10T08:09:01;101213.22;;;-2.03;97.49
72061;BME280;59925;52.136;5.420;2022-12-10T08:11:28;101222.38;;;-1.98;97.39
72061;BME280;59925;52.136;5.420;2022-12-10T08:13:55;101221.22;;;-1.96;97.68
72061;BME280;59925;52.136;5.420;2022-12-10T08:16:25;101223.38;;;-1.99;97.71
72061;BME280;59925;52.136;5.420;2022-12-10T08:18:55;101218.47;;;-2.03;97.30
72061;BME280;59925;52.136;5.420;2022-12-10T08:21:23;101216.72;;;-2.10;97.95
72061;BME280;59925;52.136;5.420;2022-12-10T08:23:50;101223.50;;;-2.16;97.95
72061;BME280;59925;52.136;5.420;2022-12-10T08:26:18;101223.31;;;-2.14;97.60
72061;BME280;59925;52.136;5.420;2022-12-10T08:28:47;101217.25;;;-2.15;97.56
72061;BME280;59925;52.136;5.420;2022-12-10T08:31:18;101227.69;;;-2.07;97.82
72061;BME280;59925;52.136;5.420;2022-12-10T08:33:45;101231.31;;;-2.08;97.53
72061;BME280;59925;52.136;5.420;2022-12-10T08:36:13;101230.50;;;-2.08;97.53
72061;BME280;59925;52.136;5.420;2022-12-10T08:38:40;101239.03;;;-2.06;97.91
72061;BME280;59925;52.136;5.420;2022-12-10T08:41:09;101236.41;;;-2.06;97.92
72061;BME280;59925;52.136;5.420;2022-12-10T08:43:37;101252.28;;;-1.99;97.86
72061;BME280;59925;52.136;5.420;2022-12-10T08:46:03;101247.66;;;-1.97;97.76
72061;BME280;59925;52.136;5.420;2022-12-10T08:48:31;101247.94;;;-1.92;97.85
72061;BME280;59925;52.136;5.420;2022-12-10T08:50:57;101250.91;;;-1.95;97.93
72061;BME280;59925;52.136;5.420;2022-12-10T08:53:24;101258.16;;;-1.97;97.81
72061;BME280;59925;52.136;5.420;2022-12-10T08:55:51;101254.53;;;-1.96;98.01
72061;BME280;59925;52.136;5.420;2022-12-10T08:58:18;101252.91;;;-1.97;97.84
72061;BME280;59925;52.136;5.420;2022-12-10T09:00:45;101270.94;;;-1.94;97.90
72061;BME280;59925;52.136;5.420;2022-12-10T09:03:12;101270.78;;;-1.93;97.57
72061;BME280;59925;52.136;5.420;2022-12-10T09:05:39;101262.06;;;-1.93;97.32
72061;BME280;59925;52.136;5.420;2022-12-10T09:08:05;101269.44;;;-1.89;97.41
72061;BME280;59925;52.136;5.420;2022-12-10T09:10:32;101270.41;;;-1.90;97.56
72061;BME280;59925;52.136;5.420;2022-12-10T09:12:58;101270.59;;;-1.91;97.89
72061;BME280;59925;52.136;5.420;2022-12-10T09:15:29;101271.78;;;-1.94;97.73
72061;BME280;59925;52.136;5.420;2022-12-10T09:17:55;101282.13;;;-1.92;97.26
72061;BME280;59925;52.136;5.420;2022-12-10T09:20:22;101281.56;;;-1.88;97.38
72061;BME280;59925;52.136;5.420;2022-12-10T09:22:48;101281.41;;;-1.86;98.03
72061;BME280;59925;52.136;5.420;2022-12-10T09:25:15;101283.69;;;-1.83;97.95
72061;BME280;59925;52.136;5.420;2022-12-10T09:27:43;101283.69;;;-1.83;97.55
72061;BME280;59925;52.136;5.420;2022-12-10T09:30:10;101288.94;;;-1.83;97.73
72061;BME280;59925;52.136;5.420;2022-12-10T09:32:37;101295.03;;;-1.82;97.93
72061;BME280;59925;52.136;5.420;2022-12-10T09:35:04;101279.72;;;-1.79;97.49
72061;BME280;59925;52.136;5.420;2022-12-10T09:37:30;101291.41;;;-1.81;97.26
72061;BME280;59925;52.136;5.420;2022-12-10T09:39:56;101292.22;;;-1.81;97.63
72061;BME280;59925;52.136;5.420;2022-12-10T09:47:49;101298.03;;;-1.71;97.97
72061;BME280;59925;52.136;5.420;2022-12-10T09:51:10;101302.78;;;-1.66;97.62
72061;BME280;59925;52.136;5.420;2022-12-10T09:53:13;101298.78;;;-1.62;97.66
72061;BME280;59925;52.136;5.420;2022-12-10T09:55:45;101296.63;;;-1.58;97.75
72061;BME280;59925;52.136;5.420;2022-12-10T09:58:19;101303.06;;;-1.61;97.57
72061;BME280;59925;52.136;5.420;2022-12-10T10:01:00;101300.78;;;-1.64;97.30
72061;BME280;59925;52.136;5.420;2022-12-10T10:03:31;101303.91;;;-1.60;97.71
72061;BME280;59925;52.136;5.420;2022-12-10T10:05:58;101305.13;;;-1.71;97.85
72061;BME280;59925;52.136;5.420;2022-12-10T10:08:38;101301.03;;;-1.74;97.24
72061;BME280;59925;52.136;5.420;2022-12-10T10:11:11;101307.75;;;-1.71;97.36
72061;BME280;59925;52.136;5.420;2022-12-10T10:13:44;101302.50;;;-1.71;97.08
72061;BME280;59925;52.136;5.420;2022-12-10T10:16:17;101307.88;;;-1.64;97.39
72061;BME280;59925;52.136;5.420;2022-12-10T10:18:46;101315.09;;;-1.66;97.41
72061;BME280;59925;52.136;5.420;2022-12-10T10:21:28;101313.47;;;-1.67;97.25
72061;BME280;59925;52.136;5.420;2022-12-10T10:23:56;101308.84;;;-1.65;97.10
72061;BME280;59925;52.136;5.420;2022-12-10T10:26:25;101315.22;;;-1.60;97.18
72061;BME280;59925;52.136;5.420;2022-12-10T10:29:06;101310.16;;;-1.61;97.37
72061;BME280;59925;52.136;5.420;2022-12-10T10:31:34;101314.53;;;-1.53;97.12
72061;BME280;59925;52.136;5.420;2022-12-10T10:34:13;101311.34;;;-1.49;97.24
72061;BME280;59925;52.136;5.420;2022-12-10T10:36:40;101316.16;;;-1.52;97.05
72061;BME280;59925;52.136;5.420;2022-12-10T10:39:28;101317.66;;;-1.58;97.02
72061;BME280;59925;52.136;5.420;2022-12-10T10:41:57;101314.34;;;-1.52;96.90
72061;BME280;59925;52.136;5.420;2022-12-10T10:44:33;101306.22;;;-1.42;96.94
72061;BME280;59925;52.136;5.420;2022-12-10T10:47:01;101304.69;;;-1.36;97.54
72061;BME280;59925;52.136;5.420;2022-12-10T10:49:31;101298.47;;;-1.44;96.96
72061;BME280;59925;52.136;5.420;2022-12-10T10:52:20;101299.38;;;-1.51;97.30
72061;BME280;59925;52.136;5.420;2022-12-10T10:54:47;101301.84;;;-1.50;97.06
72061;BME280;59925;52.136;5.420;2022-12-10T10:57:34;101307.19;;;-1.43;97.21
72061;BME280;59925;52.136;5.420;2022-12-10T11:00:10;101310.38;;;-1.48;97.18
72061;BME280;59925;52.136;5.420;2022-12-10T11:02:43;101309.00;;;-1.44;97.06
72061;BME280;59925;52.136;5.420;2022-12-10T11:05:29;101315.78;;;-1.49;96.82
72061;BME280;59925;52.136;5.420;2022-12-10T11:08:06;101313.69;;;-1.54;96.83
72061;BME280;59925;52.136;5.420;2022-12-10T11:10:50;101311.41;;;-1.57;97.01
72061;BME280;59925;52.136;5.420;2022-12-10T11:13:27;101311.25;;;-1.56;96.90
72061;BME280;59925;52.136;5.420;2022-12-10T11:18:37;101301.84;;;-1.50;96.96
72061;BME280;59925;52.136;5.420;2022-12-10T11:21:15;101294.22;;;-1.45;96.51
72061;BME280;59925;52.136;5.420;2022-12-10T11:23:45;101298.84;;;-1.47;96.83
72061;BME280;59925;52.136;5.420;2022-12-10T11:37:34;101300.41;;;-1.37;96.63
72061;BME280;59925;52.136;5.420;2022-12-10T11:40:19;101286.69;;;-1.48;96.27
72061;BME280;59925;52.136;5.420;2022-12-10T11:50:50;101288.88;;;-1.36;96.79
72061;BME280;59925;52.136;5.420;2022-12-10T11:56:26;101284.19;;;-1.26;96.44
72061;BME280;59925;52.136;5.420;2022-12-10T12:01:43;101294.72;;;-1.26;96.57
72061;BME280;59925;52.136;5.420;2022-12-10T12:10:57;101292.81;;;-1.32;95.94
72061;BME280;59925;52.136;5.420;2022-12-10T12:14:13;101303.94;;;-1.30;96.59
72061;BME280;59925;52.136;5.420;2022-12-10T12:16:30;101311.28;;;-1.26;96.03
72061;BME280;59925;52.136;5.420;2022-12-10T12:19:13;101310.84;;;-1.29;96.41
72061;BME280;59925;52.136;5.420;2022-12-10T12:21:42;101302.94;;;-1.29;96.22
72061;BME280;59925;52.136;5.420;2022-12-10T12:24:17;101299.88;;;-1.33;96.16
72061;BME280;59925;52.136;5.420;2022-12-10T12:26:51;101298.06;;;-1.32;96.29
72061;BME280;59925;52.136;5.420;2022-12-10T12:29:33;101294.59;;;-1.33;95.65
72061;BME280;59925;52.136;5.420;2022-12-10T12:34:49;101293.91;;;-1.27;96.35
72061;BME280;59925;52.136;5.420;2022-12-10T12:37:29;101290.34;;;-1.19;96.37
72061;BME280;59925;52.136;5.420;2022-12-10T12:40:11;101289.09;;;-1.23;96.23
72061;BME280;59925;52.136;5.420;2022-12-10T12:42:49;101292.19;;;-1.19;95.82
72061;BME280;59925;52.136;5.420;2022-12-10T12:45:33;101294.00;;;-1.20;96.37
72061;BME280;59925;52.136;5.420;2022-12-10T12:51:02;101288.34;;;-1.17;95.94
72061;BME280;59925;52.136;5.420;2022-12-10T12:53:29;101297.88;;;-1.16;95.70
72061;BME280;59925;52.136;5.420;2022-12-10T12:59:31;101304.69;;;-1.21;95.66
72061;BME280;59925;52.136;5.420;2022-12-10T13:04:50;101308.50;;;-1.24;96.05
72061;BME280;59925;52.136;5.420;2022-12-10T13:15:36;101295.78;;;-1.35;95.62
72061;BME280;59925;52.136;5.420;2022-12-10T13:18:19;101297.25;;;-1.33;95.90
72061;BME280;59925;52.136;5.420;2022-12-10T13:34:04;101300.06;;;-1.19;96.05
72061;BME280;59925;52.136;5.420;2022-12-10T13:41:34;101299.72;;;-1.16;95.76
72061;BME280;59925;52.136;5.420;2022-12-10T13:47:05;101309.69;;;-1.12;95.93
72061;BME280;59925;52.136;5.420;2022-12-10T13:49:54;101296.00;;;-1.07;95.66
72061;BME280;59925;52.136;5.420;2022-12-10T13:52:37;101313.13;;;-1.11;96.03
72061;BME280;59925;52.136;5.420;2022-12-10T13:57:56;101299.97;;;-1.11;96.09
72061;BME280;59925;52.136;5.420;2022-12-10T14:06:08;101308.84;;;-1.27;96.09
72061;BME280;59925;52.136;5.420;2022-12-10T14:08:40;101315.41;;;-1.23;96.12
72061;BME280;59925;52.136;5.420;2022-12-10T14:11:23;101314.94;;;-1.27;95.62
72061;BME280;59925;52.136;5.420;2022-12-10T14:13:58;101319.84;;;-1.24;95.85
72061;BME280;59925;52.136;5.420;2022-12-10T14:16:28;101320.47;;;-1.21;96.41
72061;BME280;59925;52.136;5.420;2022-12-10T14:19:04;101318.78;;;-1.14;96.15
72061;BME280;59925;52.136;5.420;2022-12-10T14:21:37;101321.22;;;-1.13;96.00
72061;BME280;59925;52.136;5.420;2022-12-10T14:24:05;101320.22;;;-1.12;96.26
72061;BME280;59925;52.136;5.420;2022-12-10T14:26:35;101331.75;;;-1.13;96.48
72061;BME280;59925;52.136;5.420;2022-12-10T14:31:39;101326.84;;;-1.16;96.51
72061;BME280;59925;52.136;5.420;2022-12-10T14:34:14;101330.00;;;-1.20;96.34
72061;BME280;59925;52.136;5.420;2022-12-10T14:36:47;101323.94;;;-1.21;96.00
72061;BME280;59925;52.136;5.420;2022-12-10T14:39:16;101319.38;;;-1.27;96.33
72061;BME280;59925;52.136;5.420;2022-12-10T14:41:44;101324.28;;;-1.24;96.37
72061;BME280;59925;52.136;5.420;2022-12-10T14:44:15;101336.25;;;-1.21;96.62
72061;BME280;59925;52.136;5.420;2022-12-10T14:46:43;101340.34;;;-1.19;96.22
72061;BME280;59925;52.136;5.420;2022-12-10T14:49:20;101347.34;;;-1.11;96.36
72061;BME280;59925;52.136;5.420;2022-12-10T14:51:47;101350.47;;;-1.08;96.55
72061;BME280;59925;52.136;5.420;2022-12-10T14:54:33;101351.72;;;-1.03;96.44
72061;BME280;59925;52.136;5.420;2022-12-10T14:57:05;101348.91;;;-1.02;96.12
72061;BME280;59925;52.136;5.420;2022-12-10T14:59:49;101351.00;;;-0.97;96.23